TimeEST,TemperatureF,Dew PointF,Humidity,Sea Level PressureIn,VisibilityMPH,Wind Direction,Wind SpeedMPH,Gust SpeedMPH,PrecipitationIn,Events,Conditions,WindDirDegrees,DateUTC
12:15 AM,37.0,30.7,78,29.91,10.0,Calm,Calm,-,N/A,,Clear,0,2013-02-14 05:15:00
12:35 AM,36.1,30.7,81,29.92,10.0,SW,3.5,-,N/A,,Clear,230,2013-02-14 05:35:00
12:55 AM,38.5,29.8,71,29.93,10.0,West,3.5,-,N/A,,Clear,280,2013-02-14 05:55:00
1:15 AM,35.8,30.2,80,29.93,10.0,West,5.8,-,N/A,,Clear,280,2013-02-14 06:15:00
1:35 AM,38.3,28.9,69,29.93,10.0,WNW,4.6,-,N/A,,Clear,290,2013-02-14 06:35:00
1:55 AM,38.3,27.9,66,29.93,10.0,WNW,10.4,17.3,N/A,,Clear,300,2013-02-14 06:55:00
2:15 AM,38.8,27.1,63,29.94,10.0,NW,5.8,-,N/A,,Clear,310,2013-02-14 07:15:00
2:35 AM,38.7,26.6,62,29.94,10.0,NW,6.9,-,N/A,,Clear,310,2013-02-14 07:35:00
2:55 AM,38.5,26.4,62,29.95,10.0,NW,5.8,-,N/A,,Clear,310,2013-02-14 07:55:00
3:15 AM,38.3,26.1,61,29.95,10.0,NW,5.8,-,N/A,,Clear,320,2013-02-14 08:15:00
3:35 AM,38.1,25.7,61,29.95,10.0,NW,4.6,-,N/A,,Clear,310,2013-02-14 08:35:00
3:55 AM,37.4,25.7,63,29.95,10.0,NW,4.6,-,N/A,,Clear,310,2013-02-14 08:55:00
4:15 AM,36.9,25.5,64,29.95,10.0,Calm,Calm,-,N/A,,Clear,0,2013-02-14 09:15:00
4:35 AM,35.2,25.9,69,29.95,10.0,West,3.5,-,N/A,,Clear,280,2013-02-14 09:35:00
4:55 AM,36.1,25.3,65,29.96,10.0,WSW,3.5,-,N/A,,Clear,250,2013-02-14 09:55:00
5:15 AM,31.3,26.2,82,29.97,10.0,Calm,Calm,-,N/A,,Clear,0,2013-02-14 10:15:00
5:35 AM,29.1,27.9,95,29.97,10.0,Calm,Calm,-,N/A,,Clear,0,2013-02-14 10:35:00
5:55 AM,29.1,27.5,94,29.99,10.0,Calm,Calm,-,N/A,,Clear,0,2013-02-14 10:55:00
6:15 AM,28.9,27.9,96,29.99,10.0,Calm,Calm,-,N/A,,Clear,0,2013-02-14 11:15:00
6:35 AM,27.7,26.8,96,30.00,10.0,Calm,Calm,-,N/A,,Clear,0,2013-02-14 11:35:00
6:55 AM,27.9,27.1,97,30.01,10.0,Calm,Calm,-,N/A,,Clear,0,2013-02-14 11:55:00
7:15 AM,27.3,26.4,96,30.02,10.0,Calm,Calm,-,N/A,,Clear,0,2013-02-14 12:15:00
7:35 AM,27.5,26.8,97,30.04,10.0,Calm,Calm,-,N/A,,Clear,0,2013-02-14 12:35:00
7:55 AM,28.4,27.9,98,30.04,10.0,Calm,Calm,-,N/A,,Clear,0,2013-02-14 12:55:00
8:15 AM,32.4,30.9,94,30.06,10.0,South,3.5,-,N/A,,Clear,190,2013-02-14 13:15:00
8:35 AM,34.5,28.6,79,30.06,10.0,Calm,Calm,-,N/A,,Clear,0,2013-02-14 13:35:00
8:55 AM,36.9,27.9,70,30.07,10.0,Calm,Calm,-,N/A,,Clear,0,2013-02-14 13:55:00
9:15 AM,37.2,27.1,67,30.08,10.0,WSW,4.6,-,N/A,,Clear,250,2013-02-14 14:15:00
9:35 AM,37.4,28.0,69,30.09,10.0,West,3.5,-,N/A,,Clear,270,2013-02-14 14:35:00
10:15 AM,39.7,27.7,62,30.08,10.0,Calm,Calm,-,N/A,,Clear,0,2013-02-14 15:15:00
10:35 AM,41.5,25.5,53,30.07,10.0,NW,3.5,-,N/A,,Clear,320,2013-02-14 15:35:00
10:55 AM,42.8,25.9,51,30.06,10.0,Calm,Calm,-,N/A,,Clear,0,2013-02-14 15:55:00
11:15 AM,44.1,27.5,52,30.06,10.0,WNW,3.5,-,N/A,,Clear,290,2013-02-14 16:15:00
11:35 AM,45.0,26.4,48,30.07,10.0,Calm,Calm,-,N/A,,Clear,0,2013-02-14 16:35:00
11:55 AM,46.4,25.9,45,30.06,10.0,South,6.9,-,N/A,,Clear,190,2013-02-14 16:55:00
12:15 PM,46.9,26.1,44,30.06,10.0,SSW,6.9,-,N/A,,Clear,210,2013-02-14 17:15:00
12:35 PM,48.6,27.0,43,30.05,10.0,South,5.8,-,N/A,,Clear,180,2013-02-14 17:35:00
12:55 PM,49.5,28.0,44,30.04,10.0,SW,5.8,-,N/A,,Clear,220,2013-02-14 17:55:00
1:15 PM,50.5,27.7,41,30.03,10.0,SW,5.8,-,N/A,,Clear,230,2013-02-14 18:15:00
1:35 PM,50.9,28.6,42,30.02,10.0,SSW,8.1,-,N/A,,Clear,210,2013-02-14 18:35:00
1:55 PM,51.3,29.3,43,30.00,10.0,South,6.9,-,N/A,,Clear,190,2013-02-14 18:55:00
2:15 PM,52.3,28.6,40,29.99,10.0,SW,6.9,-,N/A,,Clear,230,2013-02-14 19:15:00
2:35 PM,53.1,29.1,40,29.99,10.0,SSW,9.2,-,N/A,,Clear,210,2013-02-14 19:35:00
2:55 PM,53.1,28.4,39,30.00,10.0,South,6.9,-,N/A,,Clear,190,2013-02-14 19:55:00
3:15 PM,53.4,27.0,36,30.01,10.0,SW,9.2,-,N/A,,Clear,230,2013-02-14 20:15:00
3:35 PM,53.2,27.3,37,30.00,10.0,SW,8.1,-,N/A,,Clear,230,2013-02-14 20:35:00
3:55 PM,53.6,28.0,37,30.01,10.0,WSW,8.1,-,N/A,,Clear,240,2013-02-14 20:55:00
4:15 PM,52.7,30.0,42,30.00,10.0,South,4.6,-,N/A,,Clear,180,2013-02-14 21:15:00
4:35 PM,53.1,29.8,41,30.00,10.0,SSW,4.6,-,N/A,,Clear,200,2013-02-14 21:35:00
4:55 PM,53.1,30.2,42,30.00,10.0,SSW,3.5,-,N/A,,Clear,200,2013-02-14 21:55:00
5:15 PM,52.7,30.6,43,30.00,10.0,South,3.5,-,N/A,,Clear,170,2013-02-14 22:15:00
5:35 PM,51.6,31.1,45,30.01,10.0,South,3.5,-,N/A,,Clear,190,2013-02-14 22:35:00
5:55 PM,50.4,30.9,47,30.01,10.0,Calm,Calm,-,N/A,,Clear,0,2013-02-14 22:55:00
6:15 PM,48.4,31.6,52,30.02,10.0,Calm,Calm,-,N/A,,Clear,0,2013-02-14 23:15:00
6:35 PM,40.5,35.8,83,30.02,10.0,Calm,Calm,-,N/A,,Clear,0,2013-02-14 23:35:00
6:55 PM,39.4,33.4,79,30.03,10.0,Calm,Calm,-,N/A,,Clear,0,2013-02-14 23:55:00
7:15 PM,37.4,32.5,83,30.02,10.0,West,3.5,-,N/A,,Clear,260,2013-02-15 00:15:00
7:35 PM,38.3,31.3,76,30.03,10.0,Calm,Calm,-,N/A,,Clear,0,2013-02-15 00:35:00
7:55 PM,36.3,32.0,84,30.04,10.0,Calm,Calm,-,N/A,,Clear,0,2013-02-15 00:55:00
8:15 PM,36.0,31.6,84,30.05,10.0,Calm,Calm,-,N/A,,Clear,0,2013-02-15 01:15:00
8:35 PM,33.4,31.6,93,30.04,10.0,Calm,Calm,-,N/A,,Clear,0,2013-02-15 01:35:00
8:55 PM,32.0,29.8,92,30.05,10.0,Calm,Calm,-,N/A,,Clear,0,2013-02-15 01:55:00
9:15 PM,34.9,32.4,91,30.05,10.0,SE,3.5,-,N/A,,Clear,140,2013-02-15 02:15:00
9:35 PM,34.5,31.6,89,30.06,10.0,SSE,3.5,-,N/A,,Clear,160,2013-02-15 02:35:00
9:55 PM,31.8,30.2,94,30.07,10.0,Calm,Calm,-,N/A,,Clear,0,2013-02-15 02:55:00
10:15 PM,31.1,29.7,94,30.07,10.0,Calm,Calm,-,N/A,,Clear,0,2013-02-15 03:15:00
10:35 PM,33.8,30.4,87,30.07,10.0,North,4.6,-,N/A,,Clear,360,2013-02-15 03:35:00
10:55 PM,35.2,32.2,89,30.07,10.0,Calm,Calm,-,N/A,,Clear,0,2013-02-15 03:55:00
11:15 PM,34.9,32.2,90,30.07,10.0,NNW,4.6,-,N/A,,Clear,330,2013-02-15 04:15:00
11:35 PM,31.6,29.1,90,30.07,10.0,ENE,3.5,-,N/A,,Clear,70,2013-02-15 04:35:00
11:55 PM,31.1,30.2,96,30.07,7.0,Calm,Calm,-,N/A,,Clear,0,2013-02-15 04:55:00